createdAt,value
2018-12-30T00:01:08.604Z,4.03
2018-12-30T00:03:36.114Z,3.98
2018-12-30T00:06:03.446Z,4.03
2018-12-30T00:08:30.879Z,4.09
2018-12-30T00:10:58.354Z,4.22
2018-12-30T00:13:25.792Z,4.22
2018-12-30T00:15:53.194Z,4.20
2018-12-30T00:18:20.600Z,4.27
2018-12-30T00:20:48.272Z,4.28
2018-12-30T00:23:15.760Z,4.20
2018-12-30T00:25:43.610Z,4.21
2018-12-30T00:28:11.182Z,4.26
2018-12-30T00:30:38.791Z,4.27
2018-12-30T00:33:06.365Z,4.32
2018-12-30T00:35:34.253Z,4.37
2018-12-30T00:38:01.688Z,4.29
2018-12-30T00:40:29.227Z,4.27
2018-12-30T00:42:57.009Z,4.22
2018-12-30T00:45:25.300Z,4.17
2018-12-30T00:47:53.199Z,4.19
2018-12-30T00:50:21.497Z,4.17
2018-12-30T00:52:49.867Z,4.21
2018-12-30T00:55:17.456Z,4.27
2018-12-30T00:57:45.095Z,4.22
2018-12-30T01:00:13.134Z,4.21
2018-12-30T01:02:40.830Z,4.20
2018-12-30T01:05:09.133Z,4.23
2018-12-30T01:07:36.916Z,4.23
2018-12-30T01:10:04.502Z,4.13
2018-12-30T01:12:33.483Z,3.96
2018-12-30T01:15:01.022Z,3.86
2018-12-30T01:17:28.672Z,3.88
2018-12-30T01:19:56.300Z,3.92
2018-12-30T01:22:23.905Z,3.96
2018-12-30T01:24:55.506Z,3.78
2018-12-30T01:27:23.035Z,3.70
2018-12-30T01:29:50.840Z,3.69
2018-12-30T01:32:19.458Z,3.85
2018-12-30T01:34:47.261Z,3.90
2018-12-30T01:37:14.903Z,3.96
2018-12-30T01:39:42.460Z,3.98
2018-12-30T01:42:11.001Z,3.93
2018-12-30T01:44:39.494Z,4.09
2018-12-30T01:47:08.745Z,4.19
2018-12-30T01:49:38.058Z,4.19
2018-12-30T01:52:07.093Z,4.02
2018-12-30T01:54:35.358Z,4.03
2018-12-30T01:57:02.980Z,3.85
2018-12-30T01:59:31.648Z,3.78
2018-12-30T02:01:59.236Z,3.92
2018-12-30T02:04:27.151Z,3.95
2018-12-30T02:06:55.186Z,3.92
2018-12-30T02:09:22.934Z,3.99
2018-12-30T02:11:51.163Z,4.01
2018-12-30T02:17:02.561Z,3.76
2018-12-30T02:19:30.207Z,3.73
2018-12-30T02:21:58.399Z,3.76
2018-12-30T02:24:27.651Z,3.74
2018-12-30T02:26:55.871Z,3.82
2018-12-30T02:29:23.474Z,3.91
2018-12-30T02:31:52.145Z,3.92
2018-12-30T02:34:19.679Z,3.97
2018-12-30T02:36:47.368Z,3.99
2018-12-30T02:39:15.956Z,3.99
2018-12-30T02:41:43.933Z,4.07
2018-12-30T02:44:11.554Z,4.11
2018-12-30T02:46:39.170Z,4.10
2018-12-30T02:49:06.713Z,4.14
2018-12-30T02:51:34.646Z,4.17
2018-12-30T02:54:02.231Z,4.14
2018-12-30T02:56:29.857Z,4.16
2018-12-30T02:58:57.389Z,4.15
2018-12-30T03:01:24.922Z,4.17
2018-12-30T03:03:52.884Z,4.18
2018-12-30T03:06:22.285Z,4.05
2018-12-30T03:08:53.453Z,3.92
2018-12-30T03:11:21.064Z,3.94
2018-12-30T03:13:48.728Z,3.95
2018-12-30T03:16:16.303Z,4.03
2018-12-30T03:18:44.064Z,3.91
2018-12-30T03:21:11.846Z,3.89
2018-12-30T03:23:39.408Z,3.93
2018-12-30T03:26:07.012Z,3.96
2018-12-30T03:28:34.601Z,3.99
2018-12-30T03:31:03.010Z,3.95
2018-12-30T03:33:31.441Z,3.87
2018-12-30T03:35:59.229Z,3.88
2018-12-30T03:38:27.561Z,3.92
2018-12-30T03:40:55.857Z,3.95
2018-12-30T03:43:23.341Z,3.94
2018-12-30T03:45:55.097Z,3.97
2018-12-30T03:48:22.773Z,3.97
2018-12-30T03:50:50.353Z,3.98
2018-12-30T03:53:17.912Z,4.00
2018-12-30T03:55:45.436Z,3.99
2018-12-30T03:58:13.098Z,3.92
2018-12-30T04:00:40.612Z,3.83
2018-12-30T04:03:08.087Z,3.79
2018-12-30T04:05:35.886Z,3.90
2018-12-30T04:08:03.473Z,3.89
2018-12-30T04:10:30.939Z,3.88
2018-12-30T04:12:58.435Z,3.91
2018-12-30T04:15:26.484Z,3.89
2018-12-30T04:17:54.066Z,3.95
2018-12-30T04:20:21.631Z,4.03
2018-12-30T04:22:49.113Z,4.04
2018-12-30T04:25:17.790Z,4.04
2018-12-30T04:27:45.544Z,4.02
2018-12-30T04:30:13.143Z,4.00
2018-12-30T04:32:42.751Z,4.02
2018-12-30T04:35:10.268Z,4.05
2018-12-30T04:37:37.783Z,4.08
2018-12-30T04:40:05.734Z,4.07
2018-12-30T04:42:33.950Z,4.11
2018-12-30T04:45:01.746Z,4.15
2018-12-30T04:47:29.341Z,4.03
2018-12-30T04:49:57.034Z,4.01
2018-12-30T04:52:25.741Z,3.91
2018-12-30T04:54:52.114Z,3.91
2018-12-30T04:57:19.757Z,3.93
2018-12-30T04:59:47.422Z,3.94
2018-12-30T05:02:14.905Z,3.92
2018-12-30T05:04:42.336Z,3.89
2018-12-30T05:07:10.899Z,3.92
2018-12-30T05:09:38.951Z,3.91
2018-12-30T05:12:06.424Z,3.81
2018-12-30T05:14:34.088Z,3.86
2018-12-30T05:17:01.752Z,3.85
2018-12-30T05:19:29.257Z,3.89
2018-12-30T05:21:56.739Z,3.95
2018-12-30T05:24:24.271Z,3.95
2018-12-30T05:26:51.794Z,3.95
2018-12-30T05:29:19.247Z,3.98
2018-12-30T05:31:46.731Z,3.99
2018-12-30T05:34:14.223Z,3.94
2018-12-30T05:36:48.915Z,4.01
2018-12-30T05:39:16.446Z,3.95
2018-12-30T05:41:43.908Z,3.87
2018-12-30T05:44:11.478Z,3.86
2018-12-30T05:46:38.949Z,3.86
2018-12-30T05:49:06.405Z,3.88
2018-12-30T05:51:33.964Z,3.93
2018-12-30T05:54:01.431Z,3.94
2018-12-30T05:56:30.003Z,3.97
2018-12-30T05:58:57.530Z,3.92
2018-12-30T06:01:25.230Z,3.83
2018-12-30T06:03:52.877Z,3.77
2018-12-30T06:06:20.556Z,3.79
2018-12-30T06:08:48.066Z,3.78
2018-12-30T06:11:16.168Z,3.78
2018-12-30T06:13:47.037Z,3.77
2018-12-30T06:16:14.912Z,3.75
2018-12-30T06:18:42.629Z,3.77
2018-12-30T06:21:10.338Z,3.81
2018-12-30T06:23:39.226Z,3.74
2018-12-30T06:26:06.736Z,3.69
2018-12-30T06:28:35.075Z,3.81
2018-12-30T06:31:02.840Z,3.89
2018-12-30T06:33:32.955Z,3.94
2018-12-30T06:36:00.508Z,3.98
2018-12-30T06:38:28.027Z,3.95
2018-12-30T06:40:55.882Z,3.90
2018-12-30T06:43:23.415Z,3.91
2018-12-30T06:45:51.356Z,3.95
2018-12-30T06:48:18.858Z,3.92
2018-12-30T06:50:53.032Z,3.93
2018-12-30T06:53:20.643Z,3.98
2018-12-30T06:55:51.394Z,3.98
2018-12-30T06:58:20.761Z,3.97
2018-12-30T07:00:50.866Z,3.95
2018-12-30T07:03:19.492Z,3.90
2018-12-30T07:05:50.725Z,3.83
2018-12-30T07:08:18.264Z,3.83
2018-12-30T07:10:45.798Z,3.80
2018-12-30T07:13:14.991Z,3.79
2018-12-30T07:15:45.663Z,3.75
2018-12-30T07:18:13.497Z,3.77
2018-12-30T07:20:41.221Z,3.69
2018-12-30T07:23:08.873Z,3.73
2018-12-30T07:25:37.097Z,3.78
2018-12-30T07:28:05.171Z,3.81
2018-12-30T07:30:32.717Z,3.93
2018-12-30T07:33:00.332Z,3.95
2018-12-30T07:35:28.346Z,3.94
2018-12-30T07:37:55.947Z,3.98
2018-12-30T07:40:23.429Z,3.96
2018-12-30T07:42:50.986Z,3.98
2018-12-30T07:45:18.539Z,3.99
2018-12-30T07:47:46.118Z,4.13
2018-12-30T07:50:13.635Z,4.21
2018-12-30T07:52:41.299Z,4.39
2018-12-30T07:55:08.958Z,4.40
2018-12-30T07:57:36.557Z,4.40
2018-12-30T08:00:05.821Z,4.43
2018-12-30T08:02:33.535Z,4.45
2018-12-30T08:05:01.025Z,4.48
2018-12-30T08:07:28.441Z,4.52
2018-12-30T08:09:56.144Z,4.58
2018-12-30T08:12:23.803Z,4.53
2018-12-30T08:14:53.651Z,4.55
2018-12-30T08:17:21.126Z,4.61
2018-12-30T08:19:48.733Z,4.64
2018-12-30T08:22:18.044Z,4.64
2018-12-30T08:24:45.641Z,4.65
2018-12-30T08:27:13.203Z,4.65
2018-12-30T08:29:40.718Z,4.64
2018-12-30T08:32:08.284Z,4.67
2018-12-30T08:34:35.752Z,4.52
2018-12-30T08:37:03.197Z,4.39
2018-12-30T08:39:30.812Z,4.37
2018-12-30T08:41:58.826Z,4.47
2018-12-30T08:44:26.265Z,4.65
2018-12-30T08:46:53.767Z,4.66
2018-12-30T08:49:21.283Z,4.44
2018-12-30T08:51:49.362Z,4.43
2018-12-30T08:54:17.021Z,4.43
2018-12-30T08:56:45.438Z,4.29
2018-12-30T08:59:13.061Z,4.24
2018-12-30T09:01:40.618Z,4.26
2018-12-30T09:04:08.142Z,4.29
2018-12-30T09:06:35.712Z,4.38
2018-12-30T09:09:03.911Z,4.53
2018-12-30T09:11:31.401Z,4.63
2018-12-30T09:13:59.024Z,4.60
2018-12-30T09:16:26.587Z,4.55
2018-12-30T09:18:54.079Z,4.47
2018-12-30T09:21:21.715Z,4.51
2018-12-30T09:23:54.838Z,4.58
2018-12-30T09:26:23.348Z,4.79
2018-12-30T09:28:50.897Z,5.02
2018-12-30T09:31:18.431Z,5.11
2018-12-30T09:33:45.944Z,5.20
2018-12-30T09:36:13.491Z,5.29
2018-12-30T09:38:44.878Z,5.38
2018-12-30T09:41:12.581Z,5.38
2018-12-30T09:43:40.243Z,5.34
2018-12-30T09:46:08.701Z,5.31
2018-12-30T09:48:43.838Z,5.36
2018-12-30T09:51:12.595Z,5.36
2018-12-30T09:53:45.094Z,5.55
2018-12-30T09:56:12.104Z,5.72
2018-12-30T09:58:39.854Z,5.80
2018-12-30T10:01:07.958Z,5.87
2018-12-30T10:03:36.741Z,5.89
2018-12-30T10:06:04.478Z,5.99
2018-12-30T10:08:33.612Z,6.02
2018-12-30T10:11:01.185Z,5.91
2018-12-30T10:13:28.721Z,5.92
2018-12-30T10:15:56.286Z,5.96
2018-12-30T10:18:24.684Z,6.18
2018-12-30T10:20:52.281Z,6.27
2018-12-30T10:23:21.062Z,6.64
2018-12-30T10:25:48.782Z,6.92
2018-12-30T10:28:16.393Z,7.18
2018-12-30T10:30:45.506Z,7.82
2018-12-30T10:33:12.957Z,7.95
2018-12-30T10:35:40.735Z,8.20
2018-12-30T10:38:08.540Z,7.80
2018-12-30T10:40:36.088Z,6.99
2018-12-30T10:43:03.589Z,6.58
2018-12-30T10:45:31.090Z,6.29
2018-12-30T10:47:58.648Z,6.14
2018-12-30T10:50:26.123Z,6.19
2018-12-30T10:52:53.631Z,6.37
2018-12-30T10:55:21.236Z,6.65
2018-12-30T10:57:48.899Z,6.71
2018-12-30T11:00:17.167Z,6.82
2018-12-30T11:02:44.895Z,6.76
2018-12-30T11:05:12.491Z,6.87
2018-12-30T11:07:41.835Z,6.88
2018-12-30T11:10:09.458Z,7.09
2018-12-30T11:12:37.487Z,7.43
2018-12-30T11:15:05.019Z,7.45
2018-12-30T11:17:32.599Z,8.12
2018-12-30T11:20:00.247Z,8.95
2018-12-30T11:22:28.575Z,9.55
2018-12-30T11:24:55.690Z,10.63
2018-12-30T11:27:23.051Z,11.58
2018-12-30T11:29:50.326Z,11.60
2018-12-30T11:32:17.618Z,12.68
2018-12-30T11:34:45.429Z,13.10
2018-12-30T11:37:12.529Z,13.71
2018-12-30T11:39:39.583Z,13.72
2018-12-30T11:42:06.694Z,14.28
2018-12-30T11:44:33.780Z,14.54
2018-12-30T11:47:02.132Z,13.35
2018-12-30T11:49:29.260Z,11.90
2018-12-30T11:51:56.458Z,10.77
2018-12-30T11:54:23.463Z,10.62
2018-12-30T11:56:50.613Z,11.99
2018-12-30T11:59:17.635Z,13.56
2018-12-30T12:01:44.687Z,14.69
2018-12-30T12:04:11.772Z,15.51
2018-12-30T12:06:39.014Z,15.98
2018-12-30T12:09:06.846Z,16.79
2018-12-30T12:11:34.588Z,17.10
2018-12-30T12:14:01.799Z,17.19
2018-12-30T12:16:28.874Z,16.22
2018-12-30T12:18:56.102Z,16.36
2018-12-30T12:21:23.331Z,15.76
2018-12-30T12:23:50.459Z,14.54
2018-12-30T12:26:17.558Z,13.10
2018-12-30T12:28:44.585Z,12.95
2018-12-30T12:31:11.707Z,14.46
2018-12-30T12:33:38.661Z,15.67
2018-12-30T12:36:05.779Z,15.22
2018-12-30T12:38:37.171Z,13.93
2018-12-30T12:41:05.671Z,13.38
2018-12-30T12:43:32.727Z,14.10
2018-12-30T12:45:59.929Z,14.37
2018-12-30T12:48:27.345Z,14.58
2018-12-30T12:50:54.735Z,14.28
2018-12-30T12:53:51.984Z,13.50
2018-12-30T12:56:20.419Z,13.01
2018-12-30T12:58:47.569Z,12.68
2018-12-30T13:01:15.239Z,13.19
2018-12-30T13:20:28.383Z,17.88
2018-12-30T13:22:56.348Z,18.86
2018-12-30T13:25:23.898Z,19.36
2018-12-30T13:27:51.008Z,19.58
2018-12-30T13:30:18.018Z,19.40
2018-12-30T13:32:45.065Z,19.03
2018-12-30T13:35:12.792Z,16.97
2018-12-30T13:37:40.313Z,14.25
2018-12-30T13:40:07.832Z,12.50
2018-12-30T13:42:35.689Z,11.34
2018-12-30T13:45:03.967Z,10.77
2018-12-30T13:47:31.673Z,10.54
2018-12-30T13:49:59.294Z,10.36
2018-12-30T13:52:26.849Z,10.12
2018-12-30T13:54:54.291Z,10.01
2018-12-30T13:57:22.013Z,10.04
2018-12-30T13:59:50.478Z,10.07
2018-12-30T14:02:17.944Z,10.02
2018-12-30T14:04:45.488Z,10.00
2018-12-30T14:07:13.426Z,9.96
2018-12-30T14:09:41.704Z,9.91
2018-12-30T14:12:09.233Z,9.97
2018-12-30T14:14:36.858Z,9.93
2018-12-30T14:17:04.625Z,9.84
2018-12-30T14:19:32.472Z,9.91
2018-12-30T14:21:59.921Z,9.89
2018-12-30T14:24:27.488Z,9.87
2018-12-30T14:26:59.728Z,9.83
2018-12-30T14:29:22.719Z,9.77
2018-12-30T14:31:50.263Z,9.78
2018-12-30T14:34:17.788Z,9.72
2018-12-30T14:36:45.582Z,9.67
2018-12-30T14:39:13.146Z,9.57
2018-12-30T14:41:40.629Z,9.59
2018-12-30T14:44:08.683Z,9.55
2018-12-30T14:46:36.224Z,9.47
2018-12-30T14:49:05.180Z,9.49
2018-12-30T14:51:32.793Z,9.44
2018-12-30T14:54:00.286Z,9.42
2018-12-30T14:56:27.778Z,9.45
2018-12-30T14:58:55.205Z,9.42
2018-12-30T15:01:22.668Z,9.42
2018-12-30T15:03:50.138Z,9.33
2018-12-30T15:06:18.726Z,9.27
2018-12-30T15:08:46.267Z,9.27
2018-12-30T15:11:13.892Z,9.20
2018-12-30T15:13:42.720Z,9.25
2018-12-30T15:16:10.258Z,9.24
2018-12-30T15:18:37.821Z,9.15
2018-12-30T15:21:05.344Z,9.08
2018-12-30T15:23:32.874Z,9.00
2018-12-30T15:26:00.495Z,8.97
2018-12-30T15:28:28.122Z,8.96
2018-12-30T15:30:55.633Z,8.95
2018-12-30T15:33:24.615Z,8.84
2018-12-30T15:35:52.172Z,8.73
2018-12-30T15:38:20.877Z,8.67
2018-12-30T15:40:48.465Z,8.65
2018-12-30T15:43:17.511Z,8.66
2018-12-30T15:45:48.828Z,8.59
2018-12-30T15:48:17.671Z,8.49
2018-12-30T15:50:45.312Z,8.40
2018-12-30T15:53:12.836Z,8.36
2018-12-30T15:55:42.696Z,8.25
2018-12-30T15:58:10.405Z,8.13
2018-12-30T16:00:38.159Z,8.10
2018-12-30T16:03:05.749Z,8.01
2018-12-30T16:05:33.416Z,7.94
2018-12-30T16:08:01.052Z,7.93
2018-12-30T16:10:28.634Z,7.90
2018-12-30T16:12:57.595Z,7.86
2018-12-30T16:15:25.072Z,7.84
2018-12-30T16:17:52.601Z,7.81
2018-12-30T16:20:20.234Z,7.77
2018-12-30T16:22:47.866Z,7.76
2018-12-30T16:25:15.359Z,7.70
2018-12-30T16:27:43.935Z,7.66
2018-12-30T16:30:11.518Z,7.61
2018-12-30T16:32:39.124Z,7.53
2018-12-30T16:35:06.685Z,7.47
2018-12-30T16:37:34.267Z,7.43
2018-12-30T16:40:02.519Z,7.44
2018-12-30T16:42:30.305Z,7.48
2018-12-30T16:44:57.856Z,7.50
2018-12-30T16:47:25.353Z,7.50
2018-12-30T16:49:52.841Z,7.46
2018-12-30T16:52:20.289Z,7.43
2018-12-30T16:54:47.772Z,7.40
2018-12-30T16:57:15.302Z,7.37
2018-12-30T16:59:42.829Z,7.37
2018-12-30T17:02:10.258Z,7.38
2018-12-30T17:04:37.657Z,7.33
2018-12-30T17:07:05.106Z,7.33
2018-12-30T17:09:33.212Z,7.34
2018-12-30T17:12:00.774Z,7.34
2018-12-30T17:14:28.193Z,7.34
2018-12-30T17:16:55.625Z,7.30
2018-12-30T17:19:23.027Z,7.27
2018-12-30T17:21:50.506Z,7.28
2018-12-30T17:24:18.165Z,7.30
2018-12-30T17:26:45.907Z,7.33
2018-12-30T17:29:13.440Z,7.33
2018-12-30T17:31:40.907Z,7.27
2018-12-30T17:34:08.380Z,7.22
2018-12-30T17:36:35.935Z,7.17
2018-12-30T17:39:03.485Z,7.13
2018-12-30T17:41:30.948Z,7.16
2018-12-30T17:43:58.615Z,7.17
2018-12-30T17:46:26.095Z,7.17
2018-12-30T17:48:53.581Z,7.23
2018-12-30T17:51:21.080Z,7.24
2018-12-30T17:53:49.174Z,7.29
2018-12-30T17:56:17.277Z,7.31
2018-12-30T17:58:44.938Z,7.26
2018-12-30T18:01:12.463Z,7.23
2018-12-30T18:03:40.817Z,7.20
2018-12-30T18:06:08.246Z,7.24
2018-12-30T18:08:35.691Z,7.27
2018-12-30T18:11:03.217Z,7.28
2018-12-30T18:13:30.789Z,7.23
2018-12-30T18:15:58.593Z,7.20
2018-12-30T18:18:26.243Z,7.07
2018-12-30T18:20:53.747Z,6.97
2018-12-30T18:23:21.232Z,6.95
2018-12-30T18:25:48.756Z,7.01
2018-12-30T18:28:16.238Z,7.05
2018-12-30T18:30:43.635Z,6.99
2018-12-30T18:33:11.041Z,6.97
2018-12-30T18:35:38.447Z,6.93
2018-12-30T18:38:05.950Z,6.88
2018-12-30T18:40:33.511Z,6.85
2018-12-30T18:43:00.979Z,6.75
2018-12-30T18:45:28.371Z,6.73
2018-12-30T18:47:55.780Z,6.70
2018-12-30T18:50:23.350Z,6.63
2018-12-30T18:52:51.366Z,6.66
2018-12-30T18:55:18.763Z,6.68
2018-12-30T18:57:46.260Z,6.72
2018-12-30T19:00:13.816Z,6.77
2018-12-30T19:02:41.375Z,6.80
2018-12-30T19:05:08.944Z,6.78
2018-12-30T19:07:36.450Z,6.81
2018-12-30T19:10:03.944Z,6.77
2018-12-30T19:12:31.634Z,6.68
2018-12-30T19:14:59.198Z,6.58
2018-12-30T19:17:26.749Z,6.51
2018-12-30T19:19:54.398Z,6.47
2018-12-30T19:22:22.007Z,6.43
2018-12-30T19:24:49.631Z,6.39
2018-12-30T19:27:17.171Z,6.37
2018-12-30T19:29:45.051Z,6.40
2018-12-30T19:32:12.755Z,6.38
2018-12-30T19:34:40.288Z,6.35
2018-12-30T19:37:07.847Z,6.33
2018-12-30T19:39:35.357Z,6.32
2018-12-30T19:42:03.602Z,6.28
2018-12-30T19:44:31.262Z,6.22
2018-12-30T19:46:59.017Z,6.16
2018-12-30T19:49:26.547Z,6.09
2018-12-30T19:51:54.039Z,6.07
2018-12-30T19:54:21.523Z,6.05
2018-12-30T19:56:49.140Z,5.99
2018-12-30T19:59:16.550Z,5.97
2018-12-30T20:01:43.947Z,5.90
2018-12-30T20:04:11.381Z,5.84
2018-12-30T20:06:38.776Z,5.67
2018-12-30T20:09:06.299Z,5.61
2018-12-30T20:11:33.743Z,5.57
2018-12-30T20:14:01.171Z,5.62
2018-12-30T20:16:28.563Z,5.67
2018-12-30T20:18:55.983Z,5.74
2018-12-30T20:21:23.380Z,5.71
2018-12-30T20:23:51.163Z,5.65
2018-12-30T20:26:18.142Z,5.57
2018-12-30T20:28:45.552Z,5.52
2018-12-30T20:31:12.959Z,5.52
2018-12-30T20:33:40.400Z,5.50
2018-12-30T20:36:08.705Z,5.46
2018-12-30T20:38:35.681Z,5.44
2018-12-30T20:41:02.626Z,5.49
2018-12-30T20:43:29.589Z,5.49
2018-12-30T20:45:56.611Z,5.49
2018-12-30T20:48:25.329Z,5.50
2018-12-30T20:50:50.667Z,5.55
2018-12-30T20:53:17.608Z,5.59
2018-12-30T20:55:44.590Z,5.54
2018-12-30T20:58:11.576Z,5.53
2018-12-30T21:00:38.586Z,5.47
2018-12-30T21:03:05.544Z,5.43
2018-12-30T21:05:32.483Z,5.41
2018-12-30T21:07:59.445Z,5.35
2018-12-30T21:10:26.459Z,5.31
2018-12-30T21:12:53.400Z,5.35
2018-12-30T21:15:20.352Z,5.28
2018-12-30T21:17:47.330Z,5.28
2018-12-30T21:20:14.356Z,5.30
2018-12-30T21:22:41.359Z,5.28
2018-12-30T21:25:08.441Z,5.29
2018-12-30T21:27:35.566Z,5.20
2018-12-30T21:30:02.546Z,5.18
2018-12-30T21:32:29.548Z,5.14
2018-12-30T21:34:56.523Z,5.14
2018-12-30T21:37:23.512Z,5.12
2018-12-30T21:39:50.473Z,5.07
2018-12-30T21:42:17.452Z,5.10
2018-12-30T21:44:44.529Z,5.07
2018-12-30T21:47:11.480Z,5.04
2018-12-30T21:49:38.470Z,5.02
2018-12-30T21:52:05.494Z,5.02
2018-12-30T21:54:32.930Z,5.01
2018-12-30T21:57:00.406Z,4.96
2018-12-30T21:59:27.908Z,4.91
2018-12-30T22:01:55.933Z,4.89
2018-12-30T22:04:23.414Z,4.89
2018-12-30T22:06:50.923Z,4.92
2018-12-30T22:09:18.376Z,4.90
2018-12-30T22:11:45.856Z,4.92
2018-12-30T22:14:13.301Z,4.88
2018-12-30T22:16:40.796Z,4.85
2018-12-30T22:19:08.239Z,4.85
2018-12-30T22:21:35.686Z,4.87
2018-12-30T22:24:03.100Z,4.87
2018-12-30T22:26:30.535Z,4.84
2018-12-30T22:28:57.952Z,4.83
2018-12-30T22:31:25.362Z,4.84
2018-12-30T22:33:52.763Z,4.85
2018-12-30T22:36:20.164Z,4.77
2018-12-30T22:38:47.575Z,4.64
2018-12-30T22:41:14.967Z,4.61
2018-12-30T22:43:42.403Z,4.62
2018-12-30T22:46:09.799Z,4.59
2018-12-30T22:48:37.200Z,4.64
2018-12-30T22:51:04.615Z,4.58
2018-12-30T22:53:32.025Z,4.59
2018-12-30T22:55:59.458Z,4.58
2018-12-30T22:58:26.888Z,4.51
2018-12-30T23:01:02.826Z,4.42
2018-12-30T23:03:29.818Z,4.40
2018-12-30T23:05:57.305Z,4.36
2018-12-30T23:08:24.251Z,4.34
2018-12-30T23:10:53.136Z,4.32
2018-12-30T23:15:53.540Z,4.23
2018-12-30T23:18:20.504Z,4.27
2018-12-30T23:20:47.484Z,4.33
2018-12-30T23:23:14.430Z,4.41
2018-12-30T23:25:41.391Z,4.47
2018-12-30T23:28:08.362Z,4.44
2018-12-30T23:30:35.315Z,4.40
2018-12-30T23:33:02.304Z,4.36
2018-12-30T23:35:29.424Z,4.34
2018-12-30T23:37:56.446Z,4.33
2018-12-30T23:40:23.445Z,4.33
2018-12-30T23:42:50.491Z,4.34
2018-12-30T23:45:17.470Z,4.20
2018-12-30T23:47:44.468Z,4.16
2018-12-30T23:50:11.440Z,4.13
2018-12-30T23:52:38.438Z,4.15
2018-12-30T23:55:05.454Z,4.16
2018-12-30T23:57:33.235Z,4.13
